sensor_id;sensor_type;location;lat;lon;timestamp;pressure;altitude;pressure_sealevel;temperature;humidity
23303;BME280;11820;48.738;9.092;2023-07-24T00:00:25;95662.25;;;20.41;100.00
23303;BME280;11820;48.738;9.092;2023-07-24T00:02:51;95676.91;;;20.52;100.00
23303;BME280;11820;48.738;9.092;2023-07-24T00:05:18;95670.63;;;20.48;100.00
23303;BME280;11820;48.738;9.092;2023-07-24T00:07:43;95672.72;;;20.46;100.00
23303;BME280;11820;48.738;9.092;2023-07-24T00:10:09;95673.47;;;20.57;100.00
23303;BME280;11820;48.738;9.092;2023-07-24T00:12:34;95661.44;;;20.46;100.00
23303;BME280;11820;48.738;9.092;2023-07-24T00:14:59;95682.28;;;20.22;100.00
23303;BME280;11820;48.738;9.092;2023-07-24T00:17:25;95703.53;;;20.26;100.00
23303;BME280;11820;48.738;9.092;2023-07-24T00:19:50;95666.97;;;20.39;100.00
23303;BME280;11820;48.738;9.092;2023-07-24T00:22:16;95656.53;;;20.29;100.00
23303;BME280;11820;48.738;9.092;2023-07-24T00:24:41;95671.22;;;20.25;100.00
23303;BME280;11820;48.738;9.092;2023-07-24T00:27:06;95652.91;;;20.10;100.00
23303;BME280;11820;48.738;9.092;2023-07-24T00:29:31;95648.69;;;20.14;100.00
23303;BME280;11820;48.738;9.092;2023-07-24T00:31:57;95642.44;;;20.05;100.00
23303;BME280;11820;48.738;9.092;2023-07-24T00:34:22;95636.38;;;20.00;100.00
23303;BME280;11820;48.738;9.092;2023-07-24T00:36:47;95632.66;;;20.21;100.00
23303;BME280;11820;48.738;9.092;2023-07-24T00:39:16;95626.34;;;20.22;100.00
23303;BME280;11820;48.738;9.092;2023-07-24T00:41:42;95629.75;;;20.22;100.00
23303;BME280;11820;48.738;9.092;2023-07-24T00:44:07;95631.84;;;20.20;100.00
23303;BME280;11820;48.738;9.092;2023-07-24T00:46:34;95633.69;;;20.25;100.00
23303;BME280;11820;48.738;9.092;2023-07-24T00:49:01;95613.97;;;20.22;100.00
23303;BME280;11820;48.738;9.092;2023-07-24T00:51:27;95620.03;;;20.23;100.00
23303;BME280;11820;48.738;9.092;2023-07-24T00:53:57;95631.06;;;20.25;100.00
23303;BME280;11820;48.738;9.092;2023-07-24T00:56:23;95618.00;;;20.05;100.00
23303;BME280;11820;48.738;9.092;2023-07-24T00:58:48;95620.38;;;20.06;100.00
23303;BME280;11820;48.738;9.092;2023-07-24T01:01:16;95614.88;;;19.93;100.00
23303;BME280;11820;48.738;9.092;2023-07-24T01:03:42;95612.22;;;19.98;100.00
23303;BME280;11820;48.738;9.092;2023-07-24T01:06:08;95603.75;;;20.16;100.00
23303;BME280;11820;48.738;9.092;2023-07-24T01:08:34;95599.03;;;20.23;100.00
23303;BME280;11820;48.738;9.092;2023-07-24T01:11:08;95593.25;;;20.16;100.00
23303;BME280;11820;48.738;9.092;2023-07-24T01:13:39;95598.78;;;20.19;100.00
23303;BME280;11820;48.738;9.092;2023-07-24T01:16:26;95593.81;;;20.13;100.00
23303;BME280;11820;48.738;9.092;2023-07-24T01:18:56;95586.72;;;20.13;100.00
23303;BME280;11820;48.738;9.092;2023-07-24T01:21:31;95584.63;;;20.00;100.00
23303;BME280;11820;48.738;9.092;2023-07-24T01:24:16;95588.34;;;19.94;100.00
23303;BME280;11820;48.738;9.092;2023-07-24T01:26:48;95583.59;;;20.01;100.00
23303;BME280;11820;48.738;9.092;2023-07-24T01:29:14;95588.84;;;19.96;100.00
23303;BME280;11820;48.738;9.092;2023-07-24T01:31:39;95581.50;;;19.98;100.00
23303;BME280;11820;48.738;9.092;2023-07-24T01:34:04;95585.72;;;19.94;100.00
23303;BME280;11820;48.738;9.092;2023-07-24T01:36:30;95588.34;;;19.94;100.00
23303;BME280;11820;48.738;9.092;2023-07-24T01:38:55;95587.28;;;19.95;100.00
23303;BME280;11820;48.738;9.092;2023-07-24T01:41:21;95594.13;;;19.91;100.00
23303;BME280;11820;48.738;9.092;2023-07-24T01:43:47;95592.06;;;19.78;100.00
23303;BME280;11820;48.738;9.092;2023-07-24T01:46:12;95586.25;;;19.86;100.00
23303;BME280;11820;48.738;9.092;2023-07-24T01:48:37;95591.00;;;19.74;100.00
23303;BME280;11820;48.738;9.092;2023-07-24T01:51:03;95588.34;;;19.89;100.00
23303;BME280;11820;48.738;9.092;2023-07-24T01:53:28;95579.44;;;19.85;100.00
23303;BME280;11820;48.738;9.092;2023-07-24T01:55:53;95575.22;;;19.89;100.00
23303;BME280;11820;48.738;9.092;2023-07-24T01:58:18;95581.81;;;19.82;100.00
23303;BME280;11820;48.738;9.092;2023-07-24T02:00:44;95578.13;;;19.93;100.00
23303;BME280;11820;48.738;9.092;2023-07-24T02:03:09;95583.13;;;19.84;100.00
23303;BME280;11820;48.738;9.092;2023-07-24T02:05:34;95584.44;;;19.77;100.00
23303;BME280;11820;48.738;9.092;2023-07-24T02:08:00;95575.78;;;19.81;100.00
23303;BME280;11820;48.738;9.092;2023-07-24T02:10:25;95574.72;;;19.82;100.00
23303;BME280;11820;48.738;9.092;2023-07-24T02:12:51;95570.53;;;19.81;100.00
23303;BME280;11820;48.738;9.092;2023-07-24T02:15:16;95563.19;;;19.83;100.00
23303;BME280;11820;48.738;9.092;2023-07-24T02:17:41;95553.22;;;19.80;100.00
23303;BME280;11820;48.738;9.092;2023-07-24T02:20:07;95551.34;;;19.86;100.00
23303;BME280;11820;48.738;9.092;2023-07-24T02:22:33;95565.00;;;19.83;100.00
23303;BME280;11820;48.738;9.092;2023-07-24T02:24:58;95552.66;;;19.88;100.00
23303;BME280;11820;48.738;9.092;2023-07-24T02:27:31;95560.00;;;19.91;100.00
23303;BME280;11820;48.738;9.092;2023-07-24T02:29:59;95568.94;;;19.90;100.00
23303;BME280;11820;48.738;9.092;2023-07-24T02:32:25;95566.28;;;19.95;100.00
23303;BME280;11820;48.738;9.092;2023-07-24T02:34:50;95564.50;;;19.81;100.00
23303;BME280;11820;48.738;9.092;2023-07-24T02:37:16;95558.16;;;19.87;100.00
23303;BME280;11820;48.738;9.092;2023-07-24T02:39:42;95555.81;;;19.90;100.00
23303;BME280;11820;48.738;9.092;2023-07-24T02:42:07;95542.41;;;19.97;100.00
23303;BME280;11820;48.738;9.092;2023-07-24T02:44:34;95540.56;;;19.92;100.00
23303;BME280;11820;48.738;9.092;2023-07-24T02:46:59;95534.28;;;19.88;100.00
23303;BME280;11820;48.738;9.092;2023-07-24T02:49:24;95539.25;;;19.95;100.00
23303;BME280;11820;48.738;9.092;2023-07-24T02:51:50;95536.34;;;19.96;100.00
23303;BME280;11820;48.738;9.092;2023-07-24T02:54:15;95539.78;;;19.92;100.00
23303;BME280;11820;48.738;9.092;2023-07-24T02:56:40;95523.25;;;19.91;100.00
23303;BME280;11820;48.738;9.092;2023-07-24T02:59:06;95527.97;;;19.89;100.00
23303;BME280;11820;48.738;9.092;2023-07-24T03:01:31;95515.16;;;19.83;100.00
23303;BME280;11820;48.738;9.092;2023-07-24T03:03:56;95512.78;;;19.86;100.00
23303;BME280;11820;48.738;9.092;2023-07-24T03:06:21;95526.44;;;19.83;100.00
23303;BME280;11820;48.738;9.092;2023-07-24T03:08:47;95522.50;;;19.81;100.00
23303;BME280;11820;48.738;9.092;2023-07-24T03:11:12;95514.66;;;19.76;100.00
23303;BME280;11820;48.738;9.092;2023-07-24T03:13:37;95511.22;;;19.85;100.00
23303;BME280;11820;48.738;9.092;2023-07-24T03:16:06;95499.94;;;19.80;100.00
23303;BME280;11820;48.738;9.092;2023-07-24T03:18:31;95503.88;;;19.82;100.00
23303;BME280;11820;48.738;9.092;2023-07-24T03:20:57;95495.50;;;19.80;100.00
23303;BME280;11820;48.738;9.092;2023-07-24T03:23:24;95503.88;;;19.82;100.00
23303;BME280;11820;48.738;9.092;2023-07-24T03:25:49;95501.53;;;19.76;100.00
23303;BME280;11820;48.738;9.092;2023-07-24T03:28:14;95505.47;;;19.73;100.00
23303;BME280;11820;48.738;9.092;2023-07-24T03:30:40;95501.25;;;19.77;100.00
23303;BME280;11820;48.738;9.092;2023-07-24T03:33:05;95504.69;;;19.73;100.00
23303;BME280;11820;48.738;9.092;2023-07-24T03:35:31;95504.38;;;19.84;100.00
23303;BME280;11820;48.738;9.092;2023-07-24T03:37:57;95498.91;;;19.76;100.00
23303;BME280;11820;48.738;9.092;2023-07-24T03:40:22;95512.06;;;19.61;100.00
23303;BME280;11820;48.738;9.092;2023-07-24T03:42:47;95512.91;;;19.57;100.00
23303;BME280;11820;48.738;9.092;2023-07-24T03:45:13;95513.69;;;19.52;100.00
23303;BME280;11820;48.738;9.092;2023-07-24T03:47:38;95501.13;;;19.44;100.00
23303;BME280;11820;48.738;9.092;2023-07-24T03:50:04;95505.03;;;19.47;100.00
23303;BME280;11820;48.738;9.092;2023-07-24T03:52:29;95506.66;;;19.38;100.00
23303;BME280;11820;48.738;9.092;2023-07-24T03:54:54;95502.94;;;19.54;100.00
23303;BME280;11820;48.738;9.092;2023-07-24T03:57:20;95493.50;;;19.48;100.00
23303;BME280;11820;48.738;9.092;2023-07-24T03:59:45;95488.78;;;19.55;100.00
23303;BME280;11820;48.738;9.092;2023-07-24T04:02:11;95496.63;;;19.50;100.00
23303;BME280;11820;48.738;9.092;2023-07-24T04:04:37;95512.88;;;19.52;100.00
23303;BME280;11820;48.738;9.092;2023-07-24T04:07:03;95512.38;;;19.55;100.00
23303;BME280;11820;48.738;9.092;2023-07-24T04:09:28;95511.84;;;19.48;100.00
23303;BME280;11820;48.738;9.092;2023-07-24T04:11:53;95501.88;;;19.55;100.00
23303;BME280;11820;48.738;9.092;2023-07-24T04:14:19;95495.63;;;19.41;100.00
23303;BME280;11820;48.738;9.092;2023-07-24T04:16:45;95488.78;;;19.45;100.00
23303;BME280;11820;48.738;9.092;2023-07-24T04:19:10;95481.44;;;19.47;100.00
23303;BME280;11820;48.738;9.092;2023-07-24T04:21:36;95485.16;;;19.36;100.00
23303;BME280;11820;48.738;9.092;2023-07-24T04:24:01;95482.22;;;19.52;100.00
23303;BME280;11820;48.738;9.092;2023-07-24T04:26:27;95470.31;;;19.69;100.00
23303;BME280;11820;48.738;9.092;2023-07-24T04:28:52;95455.91;;;19.72;100.00
23303;BME280;11820;48.738;9.092;2023-07-24T04:31:17;95456.63;;;19.82;100.00
23303;BME280;11820;48.738;9.092;2023-07-24T04:33:42;95449.50;;;19.88;100.00
23303;BME280;11820;48.738;9.092;2023-07-24T04:36:08;95437.84;;;19.61;100.00
23303;BME280;11820;48.738;9.092;2023-07-24T04:38:33;95451.69;;;19.71;100.00
23303;BME280;11820;48.738;9.092;2023-07-24T04:41:01;95452.56;;;19.57;100.00
23303;BME280;11820;48.738;9.092;2023-07-24T04:43:27;95447.63;;;19.40;100.00
23303;BME280;11820;48.738;9.092;2023-07-24T04:45:53;95446.28;;;19.48;100.00
23303;BME280;11820;48.738;9.092;2023-07-24T04:48:18;95455.47;;;19.50;100.00
23303;BME280;11820;48.738;9.092;2023-07-24T04:50:44;95446.50;;;19.56;100.00
23303;BME280;11820;48.738;9.092;2023-07-24T04:53:09;95453.16;;;19.34;100.00
23303;BME280;11820;48.738;9.092;2023-07-24T04:55:34;95457.00;;;19.56;100.00
23303;BME280;11820;48.738;9.092;2023-07-24T04:57:59;95459.13;;;19.49;100.00
23303;BME280;11820;48.738;9.092;2023-07-24T05:00:25;95448.38;;;19.56;100.00
23303;BME280;11820;48.738;9.092;2023-07-24T05:02:51;95457.34;;;19.40;100.00
23303;BME280;11820;48.738;9.092;2023-07-24T05:05:16;95446.28;;;19.53;100.00
23303;BME280;11820;48.738;9.092;2023-07-24T05:07:42;95443.03;;;19.70;100.00
23303;BME280;11820;48.738;9.092;2023-07-24T05:10:07;95446.22;;;19.63;100.00
23303;BME280;11820;48.738;9.092;2023-07-24T05:12:32;95444.38;;;19.68;100.00
23303;BME280;11820;48.738;9.092;2023-07-24T05:14:58;95450.94;;;19.66;100.00
23303;BME280;11820;48.738;9.092;2023-07-24T05:17:23;95438.81;;;19.74;100.00
23303;BME280;11820;48.738;9.092;2023-07-24T05:19:48;95442.22;;;19.75;100.00
23303;BME280;11820;48.738;9.092;2023-07-24T05:22:14;95446.47;;;19.71;100.00
23303;BME280;11820;48.738;9.092;2023-07-24T05:24:39;95459.72;;;19.94;100.00
23303;BME280;11820;48.738;9.092;2023-07-24T05:27:05;95455.47;;;20.08;100.00
23303;BME280;11820;48.738;9.092;2023-07-24T05:29:31;95465.34;;;20.21;100.00
23303;BME280;11820;48.738;9.092;2023-07-24T05:31:56;95472.16;;;20.22;100.00
23303;BME280;11820;48.738;9.092;2023-07-24T05:34:21;95469.78;;;20.26;100.00
23303;BME280;11820;48.738;9.092;2023-07-24T05:36:46;95470.78;;;20.35;100.00
23303;BME280;11820;48.738;9.092;2023-07-24T05:39:12;95480.56;;;20.29;100.00
23303;BME280;11820;48.738;9.092;2023-07-24T05:41:37;95484.19;;;20.33;100.00
23303;BME280;11820;48.738;9.092;2023-07-24T05:44:03;95484.19;;;20.33;100.00
23303;BME280;11820;48.738;9.092;2023-07-24T05:46:28;95483.19;;;20.24;100.00
23303;BME280;11820;48.738;9.092;2023-07-24T05:48:53;95492.88;;;20.29;100.00
23303;BME280;11820;48.738;9.092;2023-07-24T05:51:19;95495.25;;;20.30;100.00
23303;BME280;11820;48.738;9.092;2023-07-24T05:53:44;95499.72;;;20.30;100.00
23303;BME280;11820;48.738;9.092;2023-07-24T05:56:09;95501.03;;;20.27;100.00
23303;BME280;11820;48.738;9.092;2023-07-24T05:58:35;95508.47;;;20.15;100.00
23303;BME280;11820;48.738;9.092;2023-07-24T06:01:00;95507.38;;;20.21;100.00
23303;BME280;11820;48.738;9.092;2023-07-24T06:03:25;95507.38;;;20.21;100.00
23303;BME280;11820;48.738;9.092;2023-07-24T06:05:54;95499.22;;;20.23;100.00
23303;BME280;11820;48.738;9.092;2023-07-24T06:08:20;95495.47;;;20.34;100.00
23303;BME280;11820;48.738;9.092;2023-07-24T06:10:47;95489.44;;;20.33;100.00
23303;BME280;11820;48.738;9.092;2023-07-24T06:13:14;95497.03;;;20.35;100.00
23303;BME280;11820;48.738;9.092;2023-07-24T06:15:39;95501.53;;;20.34;100.00
23303;BME280;11820;48.738;9.092;2023-07-24T06:18:05;95494.72;;;20.33;100.00
23303;BME280;11820;48.738;9.092;2023-07-24T06:20:30;95490.50;;;20.32;100.00
23303;BME280;11820;48.738;9.092;2023-07-24T06:22:55;95486.28;;;20.36;100.00
23303;BME280;11820;48.738;9.092;2023-07-24T06:25:20;95489.75;;;20.27;100.00
23303;BME280;11820;48.738;9.092;2023-07-24T06:27:46;95493.13;;;20.32;100.00
23303;BME280;11820;48.738;9.092;2023-07-24T06:30:11;95476.53;;;20.42;100.00
23303;BME280;11820;48.738;9.092;2023-07-24T06:32:36;95474.41;;;20.44;100.00
23303;BME280;11820;48.738;9.092;2023-07-24T06:35:02;95465.47;;;20.45;100.00
23303;BME280;11820;48.738;9.092;2023-07-24T06:37:27;95462.03;;;20.44;100.00
23303;BME280;11820;48.738;9.092;2023-07-24T06:39:52;95463.56;;;20.55;100.00
23303;BME280;11820;48.738;9.092;2023-07-24T06:42:18;95466.78;;;20.42;100.00
23303;BME280;11820;48.738;9.092;2023-07-24T06:44:43;95465.69;;;20.48;100.00
23303;BME280;11820;48.738;9.092;2023-07-24T06:47:08;95440.97;;;20.49;100.00
23303;BME280;11820;48.738;9.092;2023-07-24T06:49:33;95454.41;;;20.48;100.00
23303;BME280;11820;48.738;9.092;2023-07-24T06:51:59;95445.69;;;20.52;100.00
23303;BME280;11820;48.738;9.092;2023-07-24T06:54:24;95444.88;;;20.57;100.00
23303;BME280;11820;48.738;9.092;2023-07-24T06:56:49;95437.81;;;20.52;100.00
23303;BME280;11820;48.738;9.092;2023-07-24T06:59:15;95445.66;;;20.57;100.00
23303;BME280;11820;48.738;9.092;2023-07-24T07:01:40;95439.81;;;20.65;100.00
23303;BME280;11820;48.738;9.092;2023-07-24T07:04:05;95427.06;;;20.77;100.00
23303;BME280;11820;48.738;9.092;2023-07-24T07:06:30;95420.09;;;20.96;100.00
23303;BME280;11820;48.738;9.092;2023-07-24T07:08:56;95433.94;;;21.07;100.00
23303;BME280;11820;48.738;9.092;2023-07-24T07:11:21;95440.25;;;21.06;100.00
23303;BME280;11820;48.738;9.092;2023-07-24T07:13:46;95452.34;;;21.07;100.00
23303;BME280;11820;48.738;9.092;2023-07-24T07:16:12;95465.03;;;21.00;100.00
23303;BME280;11820;48.738;9.092;2023-07-24T07:18:37;95470.28;;;21.00;100.00
23303;BME280;11820;48.738;9.092;2023-07-24T07:21:02;95473.19;;;20.98;100.00
23303;BME280;11820;48.738;9.092;2023-07-24T07:23:27;95474.69;;;21.04;100.00
23303;BME280;11820;48.738;9.092;2023-07-24T07:25:53;95485.78;;;21.01;100.00
23303;BME280;11820;48.738;9.092;2023-07-24T07:28:18;95487.94;;;20.94;100.00
23303;BME280;11820;48.738;9.092;2023-07-24T07:30:45;95491.09;;;20.96;100.00
23303;BME280;11820;48.738;9.092;2023-07-24T07:33:10;95505.47;;;21.04;100.00
23303;BME280;11820;48.738;9.092;2023-07-24T07:35:36;95502.44;;;21.20;100.00
23303;BME280;11820;48.738;9.092;2023-07-24T07:38:02;95504.63;;;21.37;100.00
23303;BME280;11820;48.738;9.092;2023-07-24T07:40:28;95507.50;;;21.40;100.00
23303;BME280;11820;48.738;9.092;2023-07-24T07:42:54;95510.81;;;21.50;100.00
23303;BME280;11820;48.738;9.092;2023-07-24T07:45:19;95518.59;;;21.60;100.00
23303;BME280;11820;48.738;9.092;2023-07-24T07:47:45;95526.03;;;21.53;100.00
23303;BME280;11820;48.738;9.092;2023-07-24T07:50:10;95523.72;;;21.47;100.00
23303;BME280;11820;48.738;9.092;2023-07-24T07:52:36;95525.59;;;21.46;100.00
23303;BME280;11820;48.738;9.092;2023-07-24T07:55:01;95526.47;;;21.37;100.00
23303;BME280;11820;48.738;9.092;2023-07-24T07:57:26;95529.16;;;21.32;100.00
23303;BME280;11820;48.738;9.092;2023-07-24T07:59:52;95536.56;;;21.25;100.00
23303;BME280;11820;48.738;9.092;2023-07-24T08:02:17;95562.38;;;21.23;100.00
23303;BME280;11820;48.738;9.092;2023-07-24T08:04:42;95574.56;;;21.14;100.00
23303;BME280;11820;48.738;9.092;2023-07-24T08:07:07;95569.31;;;21.14;100.00
23303;BME280;11820;48.738;9.092;2023-07-24T08:09:33;95559.84;;;21.13;100.00
23303;BME280;11820;48.738;9.092;2023-07-24T08:11:59;95548.03;;;21.11;100.00
23303;BME280;11820;48.738;9.092;2023-07-24T08:14:24;95543.31;;;21.08;100.00
23303;BME280;11820;48.738;9.092;2023-07-24T08:16:50;95548.88;;;21.06;100.00
23303;BME280;11820;48.738;9.092;2023-07-24T08:19:15;95545.28;;;20.92;100.00
23303;BME280;11820;48.738;9.092;2023-07-24T08:21:40;95537.47;;;20.77;100.00
23303;BME280;11820;48.738;9.092;2023-07-24T08:24:06;95521.19;;;20.75;100.00
23303;BME280;11820;48.738;9.092;2023-07-24T08:26:31;95528.66;;;20.63;100.00
23303;BME280;11820;48.738;9.092;2023-07-24T08:28:57;95509.81;;;20.51;100.00
23303;BME280;11820;48.738;9.092;2023-07-24T08:31:22;95488.53;;;20.53;100.00
23303;BME280;11820;48.738;9.092;2023-07-24T08:33:47;95467.69;;;20.61;100.00
23303;BME280;11820;48.738;9.092;2023-07-24T08:36:12;95462.72;;;20.60;100.00
23303;BME280;11820;48.738;9.092;2023-07-24T08:38:38;95443.97;;;20.71;100.00
23303;BME280;11820;48.738;9.092;2023-07-24T08:41:11;95440.41;;;20.57;100.00
23303;BME280;11820;48.738;9.092;2023-07-24T08:43:40;95445.63;;;20.62;100.00
23303;BME280;11820;48.738;9.092;2023-07-24T08:46:06;95447.34;;;20.77;100.00
23303;BME280;11820;48.738;9.092;2023-07-24T08:48:34;95441.84;;;20.73;100.00
23303;BME280;11820;48.738;9.092;2023-07-24T08:51:05;95444.78;;;20.67;100.00
23303;BME280;11820;48.738;9.092;2023-07-24T08:53:36;95444.25;;;20.65;100.00
23303;BME280;11820;48.738;9.092;2023-07-24T08:56:06;95425.56;;;20.71;100.00
23303;BME280;11820;48.738;9.092;2023-07-24T08:58:32;95434.19;;;20.77;100.00
23303;BME280;11820;48.738;9.092;2023-07-24T09:00:59;95444.47;;;20.73;100.00
23303;BME280;11820;48.738;9.092;2023-07-24T09:03:24;95433.69;;;20.75;100.00
23303;BME280;11820;48.738;9.092;2023-07-24T09:05:50;95450.22;;;20.75;100.00
23303;BME280;11820;48.738;9.092;2023-07-24T09:08:15;95457.56;;;20.78;100.00
23303;BME280;11820;48.738;9.092;2023-07-24T09:10:41;95465.44;;;20.83;100.00
23303;BME280;11820;48.738;9.092;2023-07-24T09:13:07;95455.16;;;20.87;100.00
23303;BME280;11820;48.738;9.092;2023-07-24T09:15:42;95452.28;;;20.78;100.00
23303;BME280;11820;48.738;9.092;2023-07-24T09:18:08;95449.47;;;21.03;100.00
23303;BME280;11820;48.738;9.092;2023-07-24T09:20:41;95442.56;;;21.12;100.00
23303;BME280;11820;48.738;9.092;2023-07-24T09:23:08;95448.09;;;21.11;100.00
23303;BME280;11820;48.738;9.092;2023-07-24T09:25:35;95447.13;;;21.02;100.00
23303;BME280;11820;48.738;9.092;2023-07-24T09:28:09;95447.06;;;21.07;100.00
23303;BME280;11820;48.738;9.092;2023-07-24T09:30:34;95445.88;;;20.94;100.00
23303;BME280;11820;48.738;9.092;2023-07-24T09:33:00;95437.59;;;20.77;100.00
23303;BME280;11820;48.738;9.092;2023-07-24T09:35:25;95436.53;;;20.83;100.00
23303;BME280;11820;48.738;9.092;2023-07-24T09:38:10;95445.97;;;20.79;100.00
23303;BME280;11820;48.738;9.092;2023-07-24T09:40:45;95433.13;;;20.78;100.00
23303;BME280;11820;48.738;9.092;2023-07-24T09:43:19;95437.38;;;20.74;100.00
23303;BME280;11820;48.738;9.092;2023-07-24T09:45:45;95442.94;;;20.67;100.00
23303;BME280;11820;48.738;9.092;2023-07-24T09:48:12;95448.09;;;20.77;100.00
23303;BME280;11820;48.738;9.092;2023-07-24T09:50:43;95463.88;;;20.77;100.00
23303;BME280;11820;48.738;9.092;2023-07-24T09:56:07;95477.06;;;20.72;100.00
23303;BME280;11820;48.738;9.092;2023-07-24T09:58:35;95493.94;;;20.66;100.00
23303;BME280;11820;48.738;9.092;2023-07-24T10:01:05;95502.53;;;20.77;100.00
23303;BME280;11820;48.738;9.092;2023-07-24T10:03:33;95511.19;;;20.77;100.00
23303;BME280;11820;48.738;9.092;2023-07-24T10:05:59;95502.53;;;20.77;100.00
23303;BME280;11820;48.738;9.092;2023-07-24T10:08:26;95518.00;;;20.78;100.00
23303;BME280;11820;48.738;9.092;2023-07-24T10:10:51;95524.94;;;20.69;100.00
23303;BME280;11820;48.738;9.092;2023-07-24T10:13:19;95518.34;;;20.72;100.00
23303;BME280;11820;48.738;9.092;2023-07-24T10:15:46;95523.34;;;20.68;100.00
23303;BME280;11820;48.738;9.092;2023-07-24T10:18:12;95520.22;;;20.66;100.00
23303;BME280;11820;48.738;9.092;2023-07-24T10:20:39;95527.84;;;20.68;100.00
23303;BME280;11820;48.738;9.092;2023-07-24T10:23:07;95521.81;;;20.62;100.00
23303;BME280;11820;48.738;9.092;2023-07-24T10:25:36;95535.47;;;20.64;100.00
23303;BME280;11820;48.738;9.092;2023-07-24T10:28:06;95531.84;;;20.60;100.00
23303;BME280;11820;48.738;9.092;2023-07-24T10:30:41;95531.34;;;20.53;100.00
23303;BME280;11820;48.738;9.092;2023-07-24T10:33:18;95529.00;;;20.52;100.00
23303;BME280;11820;48.738;9.092;2023-07-24T10:35:45;95541.66;;;20.45;100.00
23303;BME280;11820;48.738;9.092;2023-07-24T10:38:13;95545.56;;;20.47;100.00
23303;BME280;11820;48.738;9.092;2023-07-24T10:40:43;95552.16;;;20.40;100.00
23303;BME280;11820;48.738;9.092;2023-07-24T10:43:10;95542.00;;;20.33;100.00
23303;BME280;11820;48.738;9.092;2023-07-24T10:45:52;95562.53;;;20.16;100.00
23303;BME280;11820;48.738;9.092;2023-07-24T10:48:24;95572.31;;;20.06;100.00
23303;BME280;11820;48.738;9.092;2023-07-24T10:50:51;95562.56;;;20.11;100.00
23303;BME280;11820;48.738;9.092;2023-07-24T10:53:18;95569.97;;;20.04;100.00
23303;BME280;11820;48.738;9.092;2023-07-24T10:55:46;95572.59;;;19.94;100.00
23303;BME280;11820;48.738;9.092;2023-07-24T10:58:16;95580.78;;;19.78;100.00
23303;BME280;11820;48.738;9.092;2023-07-24T11:00:42;95573.41;;;19.80;100.00
23303;BME280;11820;48.738;9.092;2023-07-24T11:03:10;95560.78;;;19.92;100.00
23303;BME280;11820;48.738;9.092;2023-07-24T11:05:39;95564.75;;;19.84;100.00
23303;BME280;11820;48.738;9.092;2023-07-24T11:08:23;95544.03;;;19.78;100.00
23303;BME280;11820;48.738;9.092;2023-07-24T11:10:54;95519.66;;;19.72;100.00
23303;BME280;11820;48.738;9.092;2023-07-24T11:13:22;95503.91;;;19.72;100.00
23303;BME280;11820;48.738;9.092;2023-07-24T11:15:49;95515.72;;;19.75;100.00
23303;BME280;11820;48.738;9.092;2023-07-24T11:18:15;95493.41;;;19.72;100.00
23303;BME280;11820;48.738;9.092;2023-07-24T11:20:45;95478.25;;;19.60;100.00
23303;BME280;11820;48.738;9.092;2023-07-24T11:23:11;95479.22;;;19.73;100.00
23303;BME280;11820;48.738;9.092;2023-07-24T11:25:37;95469.75;;;19.77;100.00
23303;BME280;11820;48.738;9.092;2023-07-24T11:28:05;95435.44;;;19.69;100.00
23303;BME280;11820;48.738;9.092;2023-07-24T11:30:31;95377.09;;;19.82;100.00
23303;BME280;11820;48.738;9.092;2023-07-24T11:32:57;95400.22;;;20.23;100.00
23303;BME280;11820;48.738;9.092;2023-07-24T11:35:25;95420.53;;;20.46;100.00
23303;BME280;11820;48.738;9.092;2023-07-24T11:37:50;95432.31;;;20.82;100.00
23303;BME280;11820;48.738;9.092;2023-07-24T11:40:16;95419.50;;;21.28;100.00
23303;BME280;11820;48.738;9.092;2023-07-24T11:42:44;95407.44;;;21.68;100.00
23303;BME280;11820;48.738;9.092;2023-07-24T11:45:11;95416.19;;;21.64;100.00
23303;BME280;11820;48.738;9.092;2023-07-24T11:47:47;95406.56;;;21.31;100.00
23303;BME280;11820;48.738;9.092;2023-07-24T11:50:13;95393.91;;;21.10;100.00
23303;BME280;11820;48.738;9.092;2023-07-24T11:52:39;95399.22;;;20.76;100.00
23303;BME280;11820;48.738;9.092;2023-07-24T11:55:06;95426.91;;;20.35;100.00
23303;BME280;11820;48.738;9.092;2023-07-24T11:57:32;95443.09;;;20.47;100.00
23303;BME280;11820;48.738;9.092;2023-07-24T11:59:57;95449.53;;;20.31;100.00
23303;BME280;11820;48.738;9.092;2023-07-24T12:02:25;95443.16;;;20.42;100.00
23303;BME280;11820;48.738;9.092;2023-07-24T12:04:59;95446.91;;;20.31;100.00
23303;BME280;11820;48.738;9.092;2023-07-24T12:07:33;95458.06;;;20.52;100.00
23303;BME280;11820;48.738;9.092;2023-07-24T12:10:00;95455.66;;;20.55;100.00
23303;BME280;11820;48.738;9.092;2023-07-24T12:12:39;95444.50;;;20.68;100.00
23303;BME280;11820;48.738;9.092;2023-07-24T12:15:05;95445.06;;;20.65;100.00
23303;BME280;11820;48.738;9.092;2023-07-24T12:17:30;95441.94;;;20.63;100.00
23303;BME280;11820;48.738;9.092;2023-07-24T12:19:56;95444.25;;;20.65;100.00
23303;BME280;11820;48.738;9.092;2023-07-24T12:22:21;95446.16;;;20.93;100.00
23303;BME280;11820;48.738;9.092;2023-07-24T12:24:47;95448.03;;;21.16;100.00
23303;BME280;11820;48.738;9.092;2023-07-24T12:27:12;95458.63;;;21.34;100.00
23303;BME280;11820;48.738;9.092;2023-07-24T12:29:38;95447.44;;;21.24;100.00
23303;BME280;11820;48.738;9.092;2023-07-24T12:32:03;95447.50;;;21.19;100.00
23303;BME280;11820;48.738;9.092;2023-07-24T12:34:29;95431.34;;;21.25;100.00
23303;BME280;11820;48.738;9.092;2023-07-24T12:36:54;95437.28;;;21.12;100.00
23303;BME280;11820;48.738;9.092;2023-07-24T12:39:19;95426.66;;;20.99;100.00
23303;BME280;11820;48.738;9.092;2023-07-24T12:41:45;95423.00;;;21.41;100.00
23303;BME280;11820;48.738;9.092;2023-07-24T12:44:10;95423.53;;;21.67;100.00
23303;BME280;11820;48.738;9.092;2023-07-24T12:46:35;95420.44;;;21.60;100.00
23303;BME280;11820;48.738;9.092;2023-07-24T12:49:01;95412.16;;;22.08;100.00